Dallas, Texas
Traffic Map
Current Weather Conditions
Dallas, Texas
Overcast
Overcast
59°
Feels Like: 59°
Wind Chill: 59° Ceiling: 800
Heat Index: 59° Visibility: 9mi
Dew Point: 57° Wind: 17mph
Humidity: 93% Direction: 140° (SE)
Pressure: 30.05in Gusts: 29mph
Raw Report DataKDAL 221353Z 14015G25KT 9SM OVC008 15/14 A3005 RMK AO2 SLP171 T01500139
Traffic Incident Summary
Active as of:
Severity:
Category:
InformationThere was an issue retrieving the traffic information for this location. Please try a different location or try again shortly.
Advertisements
Track Severe Weather on mobile